Time;durP1;ratioP1;P1;durP2;ratioP2;P2;SDS_P1;SDS_P2;PMS_P1;PMS_P2;Temp;Humidity;BMP_temperature;BMP_pressure;BME280_temperature;BME280_humidity;BME280_pressure;Samples;Min_cycle;Max_cycle;Signal;HPM_P1;HPM_P2
2022/03/08 00:01:47;;;;;;;31.30;17.40;;;0.10;42.10;;;;;;5015185;28;20034;-72
2022/03/08 00:04:12;;;;;;;28.08;17.02;;;0.00;42.20;;;;;;5015326;28;20104;-71
2022/03/08 00:06:38;;;;;;;30.80;16.90;;;0.10;42.20;;;;;;5015299;28;20042;-72
2022/03/08 00:09:03;;;;;;;32.10;17.40;;;0.00;42.10;;;;;;5015248;28;20029;-73
2022/03/08 00:11:29;;;;;;;26.95;16.70;;;0.10;42.10;;;;;;5014737;28;20025;-72
2022/03/08 00:13:54;;;;;;;30.65;17.17;;;0.10;41.90;;;;;;5015069;28;20030;-72
2022/03/08 00:16:20;;;;;;;27.10;15.73;;;0.10;41.30;;;;;;5015107;28;20026;-72
2022/03/08 00:18:48;;;;;;;22.63;15.30;;;0.10;40.80;;;;;;5014851;28;20482;-72
2022/03/08 00:21:15;;;;;;;25.52;15.07;;;0.10;40.30;;;;;;5014887;28;20045;-72
2022/03/08 00:23:40;;;;;;;24.75;15.02;;;0.30;40.20;;;;;;4997264;28;20033;-73
2022/03/08 00:26:06;;;;;;;26.70;16.48;;;0.20;39.80;;;;;;5014644;28;20394;-72
2022/03/08 00:28:31;;;;;;;27.00;16.00;;;0.30;39.80;;;;;;5014829;28;20022;-72
2022/03/08 00:30:57;;;;;;;25.08;15.55;;;0.20;39.90;;;;;;5014820;28;20406;-72
2022/03/08 00:33:24;;;;;;;26.92;17.40;;;0.20;40.80;;;;;;5014710;28;20030;-73
2022/03/08 00:35:50;;;;;;;30.33;17.75;;;0.10;40.10;;;;;;5013545;28;20032;-72
2022/03/08 00:38:16;;;;;;;26.50;17.50;;;0.00;40.50;;;;;;5014670;28;20104;-72
2022/03/08 00:40:42;;;;;;;28.20;18.00;;;-0.10;41.10;;;;;;5014602;28;20094;-72
2022/03/08 00:43:07;;;;;;;28.63;17.98;;;-0.10;41.40;;;;;;5014207;28;20022;-72
2022/03/08 00:45:33;;;;;;;27.60;17.45;;;-0.20;41.50;;;;;;5014383;28;20045;-72
2022/03/08 00:47:59;;;;;;;27.65;17.20;;;-0.20;41.70;;;;;;5014406;28;20410;-72
2022/03/08 00:50:27;;;;;;;29.13;17.15;;;-0.30;41.70;;;;;;5014404;28;20503;-72
2022/03/08 00:52:54;;;;;;;34.22;18.58;;;-0.30;42.20;;;;;;5014509;28;20394;-73
2022/03/08 00:55:20;;;;;;;31.95;18.75;;;-0.30;42.30;;;;;;5014347;28;20030;-72
2022/03/08 00:57:47;;;;;;;26.63;18.35;;;-0.40;42.50;;;;;;5014189;28;20029;-72
2022/03/08 01:00:15;;;;;;;31.35;17.95;;;-0.30;42.70;;;;;;5014124;28;20105;-72
2022/03/08 01:02:42;;;;;;;32.92;17.77;;;-0.30;42.70;;;;;;5014076;28;20034;-72
2022/03/08 01:05:08;;;;;;;30.13;18.42;;;-0.30;42.80;;;;;;5013911;28;20500;-72
2022/03/08 01:07:34;;;;;;;28.73;17.90;;;-0.40;42.80;;;;;;5014162;28;20026;-72
2022/03/08 01:09:59;;;;;;;29.90;18.17;;;-0.40;43.00;;;;;;5014206;28;20398;-72
2022/03/08 01:12:25;;;;;;;29.10;18.40;;;-0.50;43.30;;;;;;5013890;28;20061;-72
2022/03/08 01:14:51;;;;;;;27.75;17.70;;;-0.50;43.40;;;;;;5013939;28;20033;-73
2022/03/08 01:17:17;;;;;;;31.40;17.95;;;-0.50;43.40;;;;;;5013796;28;20104;-72
2022/03/08 01:19:43;;;;;;;29.77;17.73;;;-0.50;43.50;;;;;;5013557;28;20156;-73
2022/03/08 01:22:09;;;;;;;32.03;17.90;;;-0.60;43.50;;;;;;5014003;28;20386;-72
2022/03/08 01:24:35;;;;;;;35.13;20.38;;;-0.60;43.70;;;;;;5013768;28;20431;-72
2022/03/08 01:27:01;;;;;;;30.00;18.23;;;-0.70;43.80;;;;;;5013715;28;20156;-72
2022/03/08 01:29:26;;;;;;;30.25;17.60;;;-0.60;43.90;;;;;;5013718;28;20022;-72
2022/03/08 01:31:52;;;;;;;25.67;16.45;;;-0.70;44.00;;;;;;5013818;28;20021;-73
2022/03/08 01:34:17;;;;;;;29.92;17.27;;;-0.60;43.80;;;;;;4996042;28;20080;-73
2022/03/08 01:36:44;;;;;;;30.08;17.88;;;-0.50;43.70;;;;;;5013446;28;20382;-73
2022/03/08 01:39:09;;;;;;;28.17;17.45;;;-0.50;43.50;;;;;;5013414;28;20029;-73
2022/03/08 01:41:35;;;;;;;28.38;16.40;;;-0.50;43.30;;;;;;5013365;28;20026;-72
2022/03/08 01:44:01;;;;;;;30.77;18.27;;;-0.50;43.30;;;;;;5013294;28;20074;-72
2022/03/08 01:46:27;;;;;;;26.70;16.27;;;-0.50;43.30;;;;;;5013200;28;20059;-72
2022/03/08 01:48:52;;;;;;;27.38;15.95;;;-0.50;43.20;;;;;;5013645;28;20022;-72
2022/03/08 01:51:20;;;;;;;28.17;16.65;;;-0.50;42.90;;;;;;5013546;28;20472;-72
2022/03/08 01:53:46;;;;;;;27.33;16.23;;;-0.40;42.80;;;;;;5013518;28;20045;-73
2022/03/08 01:56:12;;;;;;;22.13;13.95;;;-0.40;42.80;;;;;;5013399;28;20028;-72
2022/03/08 01:58:38;;;;;;;27.65;15.77;;;-0.40;42.70;;;;;;5013477;28;20104;-72
2022/03/08 02:01:05;;;;;;;26.08;15.57;;;-0.30;42.80;;;;;;5013424;28;20101;-72
2022/03/08 02:03:31;;;;;;;21.98;13.82;;;-0.30;42.50;;;;;;5013323;28;20026;-72
2022/03/08 02:05:56;;;;;;;20.90;13.73;;;-0.30;42.40;;;;;;5013372;28;20169;-72
2022/03/08 02:08:22;;;;;;;25.92;15.55;;;-0.30;42.20;;;;;;5013460;28;20033;-72
2022/03/08 02:10:47;;;;;;;23.20;14.73;;;-0.40;42.10;;;;;;5013350;28;20022;-72
2022/03/08 02:13:13;;;;;;;26.67;15.30;;;-0.40;42.20;;;;;;5013222;28;20034;-72
2022/03/08 02:15:38;;;;;;;23.00;13.70;;;-0.60;42.40;;;;;;5013042;28;20030;-73
2022/03/08 02:18:04;;;;;;;21.30;13.20;;;-0.60;42.60;;;;;;5013187;28;20030;-72
2022/03/08 02:20:30;;;;;;;22.50;13.68;;;-0.50;42.80;;;;;;5013011;28;20040;-72
2022/03/08 02:22:56;;;;;;;22.92;13.80;;;-0.40;42.80;;;;;;5013144;28;20026;-73
2022/03/08 02:25:22;;;;;;;24.40;13.60;;;-0.30;42.40;;;;;;5013041;28;20081;-73
2022/03/08 02:27:51;;;;;;;23.00;12.40;;;-0.40;41.80;;;;;;5013252;28;20034;-72
2022/03/08 02:30:18;;;;;;;23.50;13.98;;;-0.50;41.90;;;;;;5013322;28;20034;-73
2022/03/08 02:32:44;;;;;;;22.98;13.32;;;-0.50;42.80;;;;;;5013047;28;20049;-73
2022/03/08 02:35:15;;;;;;;20.38;11.93;;;-0.60;42.00;;;;;;5013078;28;20052;-73
2022/03/08 02:37:47;;;;;;;23.13;12.65;;;-0.50;42.20;;;;;;5013036;28;20057;-73
2022/03/08 02:40:15;;;;;;;20.00;11.07;;;-0.50;42.00;;;;;;5013008;28;20377;-73
2022/03/08 02:42:41;;;;;;;17.05;11.15;;;-0.40;41.90;;;;;;5013041;28;20030;-73
2022/03/08 02:45:09;;;;;;;20.30;11.75;;;-0.30;41.40;;;;;;5012779;28;20046;-73
2022/03/08 02:47:35;;;;;;;18.83;11.25;;;-0.30;40.80;;;;;;5013199;28;20064;-73
2022/03/08 02:50:01;;;;;;;15.32;10.10;;;-0.20;40.50;;;;;;5012936;28;20057;-72
2022/03/08 02:52:26;;;;;;;15.13;9.60;;;-0.10;40.50;;;;;;5012816;28;20034;-72
2022/03/08 02:54:52;;;;;;;13.85;8.88;;;-0.20;40.30;;;;;;4995364;28;20100;-72
2022/03/08 02:57:17;;;;;;;15.15;9.90;;;-0.20;39.80;;;;;;5012877;28;20030;-73
2022/03/08 02:59:43;;;;;;;16.75;10.77;;;-0.10;39.80;;;;;;5016032;28;20048;-72
2022/03/08 03:02:09;;;;;;;16.50;10.57;;;-0.10;39.70;;;;;;5016501;28;20045;-72
2022/03/08 03:04:34;;;;;;;17.02;10.23;;;0.00;39.70;;;;;;5016608;28;20048;-72
2022/03/08 03:07:00;;;;;;;22.13;12.07;;;0.10;39.80;;;;;;5016475;28;20042;-72
2022/03/08 03:09:25;;;;;;;19.30;11.68;;;-0.10;40.30;;;;;;5016285;28;20084;-72
2022/03/08 03:11:51;;;;;;;15.50;10.82;;;-0.10;40.30;;;;;;5016305;28;20072;-72
2022/03/08 03:14:16;;;;;;;19.30;11.95;;;-0.20;40.20;;;;;;5021010;28;20026;-71
2022/03/08 03:16:42;;;;;;;17.63;11.20;;;-0.20;39.90;;;;;;5032876;28;20540;-71
2022/03/08 03:19:08;;;;;;;20.13;10.82;;;-0.30;41.00;;;;;;5027700;28;20022;-72
2022/03/08 03:21:33;;;;;;;17.88;10.32;;;-0.30;40.30;;;;;;5016808;28;20033;-72
2022/03/08 03:24:00;;;;;;;17.23;11.10;;;-0.30;40.40;;;;;;5016236;28;20164;-72
2022/03/08 03:26:26;;;;;;;18.85;10.52;;;-0.30;40.60;;;;;;5016018;28;20101;-72
2022/03/08 03:28:51;;;;;;;19.23;11.10;;;-0.30;40.60;;;;;;5016109;28;20089;-72
2022/03/08 03:31:17;;;;;;;18.13;10.98;;;-0.30;40.60;;;;;;5015915;28;20030;-71
2022/03/08 03:33:43;;;;;;;18.52;9.88;;;-0.40;40.50;;;;;;5015928;28;20018;-72
2022/03/08 03:36:09;;;;;;;14.68;9.20;;;-0.40;40.20;;;;;;5016011;28;20033;-73
2022/03/08 03:38:34;;;;;;;18.05;10.43;;;-0.30;39.80;;;;;;5015770;28;20049;-71
2022/03/08 03:41:00;;;;;;;17.98;11.40;;;-0.20;39.50;;;;;;5015850;28;20508;-73
2022/03/08 03:43:25;;;;;;;19.05;11.95;;;-0.30;39.70;;;;;;5015743;28;20110;-73
2022/03/08 03:45:51;;;;;;;17.25;10.75;;;-0.40;40.10;;;;;;5015493;28;20049;-75
2022/03/08 03:48:16;;;;;;;21.58;10.68;;;-0.40;40.30;;;;;;5015728;28;20033;-73
2022/03/08 03:50:42;;;;;;;19.70;11.57;;;-0.40;40.10;;;;;;5015710;28;20425;-71
2022/03/08 03:53:08;;;;;;;18.50;10.90;;;-0.40;40.00;;;;;;5015509;28;20136;-74
2022/03/08 03:55:34;;;;;;;18.65;10.65;;;-0.30;40.00;;;;;;5015339;28;20030;-71
2022/03/08 03:58:00;;;;;;;15.65;10.45;;;-0.40;39.90;;;;;;5015368;28;20036;-72
2022/03/08 04:00:26;;;;;;;20.02;11.68;;;-0.40;39.90;;;;;;5015369;28;20029;-73
2022/03/08 04:02:52;;;;;;;18.02;10.63;;;-0.40;40.10;;;;;;5015331;28;20018;-71
2022/03/08 04:05:17;;;;;;;18.73;11.38;;;-0.40;40.00;;;;;;4997727;28;20037;-72
2022/03/08 04:07:43;;;;;;;16.60;10.15;;;-0.30;40.10;;;;;;5015146;28;20033;-71
2022/03/08 04:10:10;;;;;;;20.23;11.23;;;-0.30;39.90;;;;;;5014957;28;20048;-71
2022/03/08 04:12:36;;;;;;;17.42;10.88;;;-0.30;39.90;;;;;;5015038;28;20112;-71
2022/03/08 04:15:01;;;;;;;19.08;10.82;;;-0.30;40.10;;;;;;5015032;28;20450;-71
2022/03/08 04:17:27;;;;;;;17.25;11.20;;;-0.40;40.10;;;;;;4997321;28;20022;-71
2022/03/08 04:19:52;;;;;;;18.05;11.50;;;-0.50;40.20;;;;;;5015019;28;20032;-71
2022/03/08 04:22:18;;;;;;;17.77;10.88;;;-0.50;40.10;;;;;;5014968;28;20470;-71
2022/03/08 04:24:44;;;;;;;19.40;11.55;;;-0.40;40.10;;;;;;5015040;28;20033;-71
2022/03/08 04:27:09;;;;;;;18.35;11.07;;;-0.40;40.10;;;;;;5014736;28;20033;-72
2022/03/08 04:29:35;;;;;;;17.30;10.88;;;-0.50;40.40;;;;;;5015145;28;20088;-72
2022/03/08 04:32:00;;;;;;;17.23;9.63;;;-0.60;40.50;;;;;;5015056;28;20029;-72
2022/03/08 04:34:26;;;;;;;16.65;9.85;;;-0.70;40.70;;;;;;5014593;28;20106;-72
2022/03/08 04:36:51;;;;;;;16.98;10.27;;;-0.70;40.90;;;;;;5014719;28;20030;-72
2022/03/08 04:39:17;;;;;;;17.42;10.18;;;-0.70;40.90;;;;;;5014614;28;20442;-72
2022/03/08 04:41:42;;;;;;;18.38;11.25;;;-0.60;40.80;;;;;;5014477;28;20087;-71
2022/03/08 04:44:08;;;;;;;16.08;10.25;;;-0.60;40.70;;;;;;5014552;28;20042;-71
2022/03/08 04:46:34;;;;;;;18.50;10.30;;;-0.70;40.80;;;;;;5014244;28;20034;-72
2022/03/08 04:49:00;;;;;;;20.27;11.40;;;-0.70;41.00;;;;;;5014135;28;20041;-73
2022/03/08 04:51:25;;;;;;;19.85;10.55;;;-0.80;41.10;;;;;;5014444;28;20032;-73
2022/03/08 04:53:51;;;;;;;19.13;10.52;;;-0.70;41.20;;;;;;5014398;28;20021;-73
2022/03/08 04:56:18;;;;;;;18.70;10.77;;;-0.80;41.20;;;;;;5014156;28;20032;-73
2022/03/08 04:58:44;;;;;;;18.58;10.70;;;-0.80;41.30;;;;;;5014551;28;20026;-73
2022/03/08 05:01:10;;;;;;;18.48;9.93;;;-0.80;41.40;;;;;;5014215;28;20033;-72
2022/03/08 05:03:35;;;;;;;20.38;10.50;;;-0.80;41.50;;;;;;5014241;28;20037;-73
2022/03/08 05:06:01;;;;;;;20.42;11.10;;;-0.80;41.50;;;;;;5014114;28;20026;-73
2022/03/08 05:08:26;;;;;;;17.38;9.93;;;-0.80;41.50;;;;;;5013711;28;20096;-73
2022/03/08 05:10:52;;;;;;;17.33;10.82;;;-0.80;42.30;;;;;;5014106;28;20441;-73
2022/03/08 05:13:17;;;;;;;15.82;10.40;;;-0.80;41.60;;;;;;5014237;28;20037;-72
2022/03/08 05:15:44;;;;;;;17.33;10.52;;;-0.80;41.60;;;;;;5014015;28;20390;-72
2022/03/08 05:18:09;;;;;;;16.88;10.65;;;-0.90;41.70;;;;;;5013954;28;20018;-72
2022/03/08 05:20:36;;;;;;;16.02;9.88;;;-0.90;41.80;;;;;;5013295;28;20544;-72
2022/03/08 05:23:02;;;;;;;16.90;10.57;;;-0.80;41.60;;;;;;5013681;28;20529;-72
2022/03/08 05:25:28;;;;;;;18.10;10.55;;;-0.80;41.60;;;;;;5013887;28;20030;-72
2022/03/08 05:27:54;;;;;;;16.85;9.90;;;-0.90;41.80;;;;;;5013733;28;20026;-72
2022/03/08 05:30:19;;;;;;;16.08;9.75;;;-0.90;41.90;;;;;;5013787;28;20214;-72
2022/03/08 05:32:45;;;;;;;18.95;10.25;;;-1.00;42.20;;;;;;5013700;28;20356;-72
2022/03/08 05:35:11;;;;;;;20.17;11.02;;;-0.90;42.00;;;;;;5013628;28;20025;-72
2022/03/08 05:37:37;;;;;;;15.35;9.55;;;-1.00;41.90;;;;;;5013611;28;20024;-72
2022/03/08 05:40:06;;;;;;;15.50;9.68;;;-1.00;42.20;;;;;;4995881;28;20585;-72
2022/03/08 05:42:32;;;;;;;19.33;9.90;;;-1.00;42.10;;;;;;5013218;28;20045;-72
2022/03/08 05:44:57;;;;;;;16.05;10.30;;;-1.00;42.20;;;;;;5013090;28;20050;-73
2022/03/08 05:47:23;;;;;;;17.13;10.40;;;-0.90;42.20;;;;;;5013400;28;20045;-72
2022/03/08 05:49:48;;;;;;;19.85;10.00;;;-0.90;42.20;;;;;;5013331;28;20462;-72
2022/03/08 05:52:14;;;;;;;19.45;10.02;;;-0.90;42.10;;;;;;5013464;28;20467;-73
2022/03/08 05:54:40;;;;;;;15.52;9.77;;;-0.90;42.30;;;;;;5013430;28;20420;-72
2022/03/08 05:57:05;;;;;;;19.33;10.15;;;-0.90;42.30;;;;;;5013526;28;20022;-72
2022/03/08 05:59:31;;;;;;;19.73;10.93;;;-0.80;42.40;;;;;;5013418;28;20038;-72
2022/03/08 06:01:56;;;;;;;20.50;8.77;;;-0.80;42.40;;;;;;5013201;28;20051;-73
2022/03/08 06:04:22;;;;;;;15.38;9.20;;;-0.80;42.30;;;;;;5013194;28;20037;-73
2022/03/08 06:06:47;;;;;;;18.13;10.57;;;-0.70;42.60;;;;;;5013229;28;20034;-73
2022/03/08 06:09:13;;;;;;;22.65;10.18;;;-0.70;42.40;;;;;;5011976;28;20022;-73
2022/03/08 06:11:38;;;;;;;17.10;9.88;;;-0.70;42.30;;;;;;5013026;28;20022;-73
2022/03/08 06:14:04;;;;;;;18.27;9.07;;;-0.70;42.50;;;;;;5011849;28;20026;-73
2022/03/08 06:16:29;;;;;;;24.30;10.27;;;-0.70;42.60;;;;;;5013197;28;20021;-72
2022/03/08 06:18:56;;;;;;;16.40;9.13;;;-0.70;42.80;;;;;;5013068;28;20381;-73
2022/03/08 06:21:22;;;;;;;16.83;8.73;;;-0.70;42.90;;;;;;5013087;28;20049;-75
2022/03/08 06:23:47;;;;;;;17.85;9.88;;;-0.70;43.00;;;;;;5013140;28;20025;-73
2022/03/08 06:26:13;;;;;;;15.25;9.25;;;-0.60;43.10;;;;;;5012808;28;20030;-75
2022/03/08 06:28:39;;;;;;;17.65;9.75;;;-0.60;43.70;;;;;;5013060;28;20022;-73
2022/03/08 06:31:04;;;;;;;15.43;8.40;;;-0.70;44.10;;;;;;5012922;28;20040;-72
2022/03/08 06:33:30;;;;;;;15.90;8.82;;;-0.60;44.30;;;;;;5015688;28;20088;-72
2022/03/08 06:35:55;;;;;;;16.88;8.98;;;-0.40;44.70;;;;;;5016893;28;20021;-73
2022/03/08 06:38:21;;;;;;;24.17;9.73;;;-0.30;45.30;;;;;;5016869;28;20022;-72
2022/03/08 06:40:46;;;;;;;12.63;8.43;;;-0.30;45.90;;;;;;5016658;28;20029;-72
2022/03/08 06:43:12;;;;;;;13.30;8.45;;;-0.20;46.00;;;;;;5016741;28;20038;-72
2022/03/08 06:45:38;;;;;;;16.70;9.35;;;-0.10;46.40;;;;;;5016622;28;20046;-73
2022/03/08 06:48:04;;;;;;;16.58;8.43;;;-0.10;46.70;;;;;;5016662;28;20478;-72
2022/03/08 06:50:29;;;;;;;18.55;9.70;;;0.10;47.50;;;;;;5016594;28;20152;-72
2022/03/08 06:52:55;;;;;;;22.23;9.75;;;0.10;47.30;;;;;;5016524;28;20068;-73
2022/03/08 06:55:21;;;;;;;14.07;8.82;;;0.10;47.80;;;;;;5016393;28;20124;-72
2022/03/08 06:57:46;;;;;;;18.63;9.80;;;0.10;47.90;;;;;;5009223;28;20052;-73
2022/03/08 07:00:12;;;;;;;13.90;9.73;;;0.10;48.10;;;;;;5006614;28;20072;-72
2022/03/08 07:02:38;;;;;;;13.95;8.55;;;0.10;48.30;;;;;;5013943;28;20056;-73
2022/03/08 07:05:04;;;;;;;17.92;9.30;;;0.30;48.30;;;;;;5016229;28;20084;-72
2022/03/08 07:07:30;;;;;;;15.55;8.35;;;0.30;48.20;;;;;;5016062;28;20367;-73
2022/03/08 07:09:55;;;;;;;18.77;9.80;;;0.40;47.90;;;;;;5016105;28;20014;-72
2022/03/08 07:12:21;;;;;;;18.50;9.77;;;0.50;47.80;;;;;;5015948;28;20458;-72
2022/03/08 07:14:46;;;;;;;13.65;8.75;;;0.60;47.50;;;;;;5016177;28;20026;-73
2022/03/08 07:17:13;;;;;;;14.02;8.65;;;0.50;47.50;;;;;;5016216;28;20091;-73
2022/03/08 07:19:39;;;;;;;12.48;8.70;;;0.50;47.70;;;;;;5015814;28;20041;-73
2022/03/08 07:22:05;;;;;;;14.65;9.68;;;0.60;47.60;;;;;;5018303;28;20062;-73
2022/03/08 07:24:31;;;;;;;16.38;9.35;;;0.70;47.40;;;;;;5016862;28;20125;-72
2022/03/08 07:26:56;;;;;;;15.18;9.05;;;0.70;47.00;;;;;;5030204;28;20430;-72
2022/03/08 07:29:22;;;;;;;14.43;8.82;;;0.80;46.70;;;;;;5016725;28;20026;-74
2022/03/08 07:31:48;;;;;;;13.90;8.70;;;0.80;46.30;;;;;;5015730;28;20025;-72
2022/03/08 07:34:14;;;;;;;12.88;8.43;;;0.90;46.40;;;;;;5015508;28;20053;-71
2022/03/08 07:36:39;;;;;;;14.00;8.75;;;1.10;46.40;;;;;;5015576;28;20014;-73
2022/03/08 07:39:06;;;;;;;14.45;8.90;;;1.10;45.90;;;;;;4998011;28;20433;-73
2022/03/08 07:41:32;;;;;;;13.23;7.75;;;1.20;45.50;;;;;;5015295;28;20026;-73
2022/03/08 07:43:58;;;;;;;14.27;8.38;;;1.10;44.50;;;;;;4997164;28;20049;-73
2022/03/08 07:46:24;;;;;;;16.05;9.25;;;1.20;44.50;;;;;;5015465;28;20022;-74
2022/03/08 07:48:49;;;;;;;15.48;9.07;;;1.30;44.90;;;;;;5015491;28;20421;-75
2022/03/08 07:51:15;;;;;;;13.98;7.53;;;1.30;44.90;;;;;;5015315;28;20037;-74
2022/03/08 07:53:40;;;;;;;12.95;8.80;;;1.40;44.50;;;;;;5015246;28;20022;-74
2022/03/08 07:56:09;;;;;;;17.80;8.88;;;1.40;44.10;;;;;;5015093;28;20029;-77
2022/03/08 07:58:38;;;;;;;16.75;8.75;;;1.70;48.20;;;;;;5015307;28;20384;-75
2022/03/08 08:01:04;;;;;;;11.93;7.88;;;2.10;54.40;;;;;;5015014;28;20032;-76
2022/03/08 08:03:30;;;;;;;11.57;7.38;;;2.80;50.80;;;;;;5015068;28;20287;-77
2022/03/08 08:05:55;;;;;;;14.18;8.90;;;3.20;44.60;;;;;;5015162;28;20062;-76
2022/03/08 08:08:21;;;;;;;15.13;8.68;;;3.50;43.70;;;;;;5015071;28;20022;-75
2022/03/08 08:10:46;;;;;;;15.05;8.48;;;3.90;40.50;;;;;;5014746;28;20431;-76
2022/03/08 08:13:12;;;;;;;14.65;8.60;;;3.50;38.40;;;;;;5014481;28;20101;-72
2022/03/08 08:15:39;;;;;;;15.48;8.40;;;3.00;38.00;;;;;;5014717;28;20113;-73
2022/03/08 08:18:04;;;;;;;17.60;8.48;;;2.50;39.00;;;;;;5014643;28;20061;-73
2022/03/08 08:20:30;;;;;;;15.57;9.38;;;2.10;39.80;;;;;;5014726;28;20458;-74
2022/03/08 08:22:55;;;;;;;10.40;7.20;;;2.00;40.30;;;;;;5014813;28;20026;-73
2022/03/08 08:25:21;;;;;;;15.38;9.23;;;1.90;40.60;;;;;;5014357;28;20104;-74
2022/03/08 08:27:46;;;;;;;13.07;8.90;;;1.80;40.90;;;;;;5013181;28;20034;-73
2022/03/08 08:30:12;;;;;;;10.90;8.20;;;1.80;41.10;;;;;;5014579;28;20037;-73
2022/03/08 08:32:39;;;;;;;13.50;8.50;;;1.80;41.30;;;;;;5014524;28;20446;-73
2022/03/08 08:35:06;;;;;;;16.50;8.07;;;1.90;40.80;;;;;;5014585;28;20030;-73
2022/03/08 08:37:32;;;;;;;17.33;7.22;;;2.00;40.20;;;;;;5014267;28;20075;-73
2022/03/08 08:39:57;;;;;;;21.08;8.20;;;2.00;39.30;;;;;;4996843;28;20658;-72
2022/03/08 08:42:23;;;;;;;14.85;8.18;;;2.10;39.20;;;;;;4996832;28;20133;-73
2022/03/08 08:44:48;;;;;;;15.10;8.50;;;2.20;39.00;;;;;;5014029;28;20093;-74
2022/03/08 08:47:14;;;;;;;13.35;7.82;;;2.40;38.40;;;;;;5014258;28;20497;-73
2022/03/08 08:49:40;;;;;;;13.07;8.15;;;2.50;38.00;;;;;;5013922;28;20108;-73
2022/03/08 08:52:06;;;;;;;14.07;7.57;;;2.70;37.70;;;;;;5013454;28;20077;-72
2022/03/08 08:54:32;;;;;;;12.05;8.02;;;2.90;36.90;;;;;;5013607;28;20061;-73
2022/03/08 08:56:57;;;;;;;14.57;7.53;;;3.10;36.40;;;;;;5012424;28;20076;-72
2022/03/08 08:59:23;;;;;;;12.60;8.15;;;3.20;35.90;;;;;;5013472;28;20030;-73
2022/03/08 09:01:48;;;;;;;11.30;7.60;;;3.50;35.90;;;;;;5013748;28;20038;-73
2022/03/08 09:04:14;;;;;;;14.18;8.00;;;3.80;35.50;;;;;;5013893;28;20105;-74
2022/03/08 09:06:40;;;;;;;13.27;7.25;;;4.00;34.00;;;;;;5013619;28;20029;-72
2022/03/08 09:09:05;;;;;;;14.38;7.70;;;3.90;33.20;;;;;;5014081;28;20030;-73
2022/03/08 09:11:31;;;;;;;13.50;7.60;;;4.00;32.90;;;;;;5013620;28;20034;-72
2022/03/08 09:13:58;;;;;;;14.32;7.80;;;4.30;32.90;;;;;;5013566;28;20109;-73
2022/03/08 09:16:33;;;;;;;;;;;4.60;32.10;;;;;;5110590;27;20168;-73
2022/03/08 09:18:59;;;;;;;;;;;4.50;31.20;;;;;;5109480;28;20332;-71
2022/03/08 09:21:24;;;;;;;14.17;8.03;;;4.60;31.10;;;;;;5110339;28;19904;-72
2022/03/08 09:23:50;;;;;;;11.73;7.45;;;4.80;30.80;;;;;;5110277;28;20118;-72
2022/03/08 09:26:16;;;;;;;10.38;7.35;;;5.00;30.70;;;;;;5110082;28;20036;-72
2022/03/08 09:28:41;;;;;;;13.93;8.07;;;4.90;30.10;;;;;;5109679;28;20098;-71
2022/03/08 09:31:07;;;;;;;14.30;8.15;;;4.90;29.90;;;;;;5110411;28;20077;-73
2022/03/08 09:33:32;;;;;;;12.43;7.95;;;4.90;29.70;;;;;;5109951;28;20028;-71
2022/03/08 09:35:58;;;;;;;13.00;8.50;;;4.90;29.40;;;;;;5108682;28;20036;-74
2022/03/08 09:38:23;;;;;;;14.13;7.45;;;4.60;29.30;;;;;;5109706;28;20024;-73
2022/03/08 09:40:51;;;;;;;12.48;7.90;;;4.60;30.00;;;;;;5110425;28;20417;-72
2022/03/08 09:43:17;;;;;;;16.00;7.70;;;4.50;29.80;;;;;;5109850;28;20536;-72
2022/03/08 09:45:43;;;;;;;13.38;7.53;;;4.50;29.60;;;;;;5110210;28;20039;-72
2022/03/08 09:48:09;;;;;;;10.60;7.32;;;4.60;30.50;;;;;;5109898;28;20020;-72
2022/03/08 09:50:35;;;;;;;12.25;7.50;;;4.60;29.20;;;;;;5109759;28;20030;-72
2022/03/08 09:53:02;;;;;;;13.98;7.63;;;4.70;29.20;;;;;;5109945;28;20491;-72
2022/03/08 09:55:28;;;;;;;15.50;7.53;;;4.90;29.00;;;;;;5109509;28;20116;-72
2022/03/08 09:57:54;;;;;;;17.35;7.35;;;4.80;28.30;;;;;;5109488;28;20490;-71
2022/03/08 10:00:23;;;;;;;8.63;6.65;;;4.90;28.00;;;;;;5109626;28;20400;-70
2022/03/08 10:02:50;;;;;;;9.90;6.47;;;5.10;27.60;;;;;;5109442;28;20497;-72
2022/03/08 10:05:20;;;;;;;10.30;7.10;;;5.10;27.40;;;;;;5109288;28;20376;-72
2022/03/08 10:08:19;;;;;;;11.93;7.10;;;5.20;27.20;;;;;;5109651;28;20539;-73
2022/03/08 10:10:59;;;;;;;10.82;7.03;;;5.30;26.80;;;;;;5109637;28;20028;-74
2022/03/08 10:13:43;;;;;;;8.85;6.20;;;5.30;26.50;;;;;;5109604;28;20019;-74
2022/03/08 10:16:17;;;;;;;8.80;6.15;;;5.50;26.20;;;;;;5108012;28;20139;-74
2022/03/08 10:18:45;;;;;;;7.88;6.32;;;5.60;25.60;;;;;;5109334;28;20020;-73
2022/03/08 10:21:30;;;;;;;9.88;6.38;;;5.70;25.80;;;;;;5107897;28;20340;-74
2022/03/08 10:23:58;;;;;;;8.68;5.85;;;5.80;25.20;;;;;;5107796;28;20020;-72
2022/03/08 10:26:23;;;;;;;9.57;6.25;;;6.00;24.70;;;;;;5103980;28;20024;-71
2022/03/08 10:28:52;;;;;;;10.82;6.30;;;6.20;24.40;;;;;;5095765;28;20094;-72
2022/03/08 10:31:18;;;;;;;9.65;5.80;;;6.30;23.90;;;;;;5094345;28;20476;-72
2022/03/08 10:33:46;;;;;;;9.20;6.30;;;6.50;23.80;;;;;;5095809;28;20028;-72
2022/03/08 10:36:15;;;;;;;9.73;6.30;;;6.60;23.30;;;;;;5095207;28;20036;-73
2022/03/08 10:39:02;;;;;;;8.05;5.88;;;6.60;23.00;;;;;;5095317;28;20432;-74
2022/03/08 10:41:28;;;;;;;9.65;5.80;;;6.50;23.10;;;;;;5095245;28;20024;-72
2022/03/08 10:43:56;;;;;;;9.55;5.88;;;6.50;23.10;;;;;;5095203;28;20031;-72
2022/03/08 10:46:21;;;;;;;18.55;6.30;;;6.30;22.70;;;;;;5095314;28;20162;-74
2022/03/08 10:48:47;;;;;;;11.88;6.40;;;6.60;22.70;;;;;;5095220;28;20466;-73
2022/03/08 10:51:14;;;;;;;9.43;6.22;;;6.80;22.70;;;;;;5095420;28;20024;-73
2022/03/08 10:53:42;;;;;;;8.75;5.95;;;6.90;22.90;;;;;;5095282;28;20044;-74
2022/03/08 10:56:08;;;;;;;9.88;6.20;;;7.00;22.20;;;;;;5095087;28;20036;-74
2022/03/08 10:58:46;;;;;;;9.75;6.40;;;7.20;22.30;;;;;;5095071;28;20063;-74
2022/03/08 11:01:12;;;;;;;7.75;5.93;;;7.40;22.30;;;;;;5095002;28;20030;-74
2022/03/08 11:03:37;;;;;;;8.60;6.15;;;7.90;22.20;;;;;;5094888;28;20415;-73
2022/03/08 11:06:06;;;;;;;8.60;6.20;;;8.20;21.90;;;;;;5094272;28;20043;-73
2022/03/08 11:08:31;;;;;;;8.65;6.00;;;8.40;21.10;;;;;;5093245;28;20021;-73
2022/03/08 11:10:57;;;;;;;8.32;6.07;;;8.80;21.10;;;;;;5092974;28;20028;-74
2022/03/08 11:13:23;;;;;;;10.98;7.35;;;9.00;20.20;;;;;;5094286;28;20046;-73
2022/03/08 11:15:49;;;;;;;7.30;5.72;;;9.10;20.00;;;;;;5093152;28;20440;-73
2022/03/08 11:18:15;;;;;;;8.82;6.68;;;9.10;19.80;;;;;;5092872;28;20047;-73
2022/03/08 11:20:43;;;;;;;9.23;6.63;;;9.40;19.80;;;;;;5094395;28;20476;-74
2022/03/08 11:23:09;;;;;;;9.90;7.28;;;9.30;19.40;;;;;;5094405;28;20032;-74
2022/03/08 11:25:38;;;;;;;9.07;6.53;;;9.00;19.20;;;;;;5092970;28;20024;-74
2022/03/08 11:28:05;;;;;;;10.15;5.97;;;9.00;19.60;;;;;;5094355;28;20032;-75
2022/03/08 11:30:40;;;;;;;12.00;7.13;;;8.50;19.00;;;;;;5092506;28;20115;-74
2022/03/08 11:33:14;;;;;;;9.57;7.32;;;8.10;19.30;;;;;;5094276;28;20028;-74
2022/03/08 11:36:00;;;;;;;9.95;7.90;;;8.00;20.00;;;;;;5094182;28;20039;-74
2022/03/08 11:38:26;;;;;;;14.57;7.90;;;7.90;20.60;;;;;;5091679;28;20039;-74
2022/03/08 11:40:54;;;;;;;11.95;7.30;;;8.10;21.30;;;;;;5094312;28;20032;-73
2022/03/08 11:43:35;;;;;;;12.73;8.35;;;8.10;21.60;;;;;;5094196;28;20157;-73
2022/03/08 11:46:16;;;;;;;11.38;7.25;;;8.20;22.10;;;;;;5093184;28;20016;-73
2022/03/08 11:48:54;;;;;;;14.48;7.43;;;8.20;22.10;;;;;;5098226;28;20130;-73
2022/03/08 11:51:24;;;;;;;11.13;7.55;;;8.20;21.90;;;;;;5109225;28;20373;-73
2022/03/08 11:54:24;;;;;;;10.68;7.22;;;8.20;22.90;;;;;;5107540;28;20047;-74
2022/03/08 11:56:51;;;;;;;13.30;7.30;;;8.30;22.20;;;;;;5107693;28;20036;-73
2022/03/08 11:59:17;;;;;;;9.52;6.68;;;8.50;21.60;;;;;;5110025;28;20024;-73
2022/03/08 12:01:43;;;;;;;10.52;7.45;;;8.90;21.30;;;;;;5110848;28;20081;-74
2022/03/08 12:04:12;;;;;;;16.27;6.63;;;8.90;20.70;;;;;;5103603;28;20383;-75
2022/03/08 12:06:39;;;;;;;10.65;6.72;;;8.70;20.40;;;;;;5093252;28;20119;-74
2022/03/08 12:09:13;;;;;;;10.05;6.47;;;8.80;20.30;;;;;;5093889;28;20028;-73
2022/03/08 12:12:00;;;;;;;8.45;6.45;;;9.00;20.10;;;;;;5092521;28;20070;-73
2022/03/08 12:14:30;;;;;;;8.73;6.20;;;9.30;19.90;;;;;;5093144;28;20075;-74
2022/03/08 12:17:09;;;;;;;8.05;6.03;;;9.50;19.60;;;;;;5093950;28;20117;-74
2022/03/08 12:19:44;;;;;;;9.27;5.75;;;9.50;19.40;;;;;;5093664;28;20024;-74
2022/03/08 12:22:18;;;;;;;8.83;5.40;;;9.70;18.90;;;;;;5091622;28;20028;-73
2022/03/08 12:24:48;;;;;;;8.75;5.25;;;9.80;18.30;;;;;;5093222;28;20023;-73
2022/03/08 12:27:13;;;;;;;7.13;4.93;;;9.60;17.60;;;;;;5092789;28;20051;-74
2022/03/08 12:29:54;;;;;;;6.60;4.57;;;9.60;17.10;;;;;;5091670;28;20460;-73
2022/03/08 12:32:41;;;;;;;6.25;3.90;;;10.20;17.10;;;;;;5092935;28;20019;-74
2022/03/08 12:35:22;;;;;;;4.60;3.28;;;10.60;16.10;;;;;;5092869;28;20468;-74
2022/03/08 12:37:54;;;;;;;7.38;3.47;;;10.50;15.20;;;;;;5092905;28;20032;-74
2022/03/08 12:40:28;;;;;;;5.20;3.75;;;10.40;14.70;;;;;;5091706;28;20028;-74